sensor_id;sensor_type;location;lat;lon;timestamp;P1;durP1;ratioP1;P2;durP2;ratioP2
54599;SDS011;40500;51.084;16.958;2022-12-08T00:01:38;6.00;;;4.10;;
54599;SDS011;40500;51.084;16.958;2022-12-08T00:04:07;7.50;;;4.20;;
54599;SDS011;40500;51.084;16.958;2022-12-08T00:06:36;9.10;;;4.60;;
54599;SDS011;40500;51.084;16.958;2022-12-08T00:09:25;13.20;;;5.10;;
54599;SDS011;40500;51.084;16.958;2022-12-08T00:12:06;6.90;;;4.10;;
54599;SDS011;40500;51.084;16.958;2022-12-08T00:14:37;8.50;;;4.40;;
54599;SDS011;40500;51.084;16.958;2022-12-08T00:17:07;8.10;;;4.20;;
54599;SDS011;40500;51.084;16.958;2022-12-08T00:19:38;11.00;;;4.40;;
54599;SDS011;40500;51.084;16.958;2022-12-08T00:22:08;8.30;;;4.70;;
54599;SDS011;40500;51.084;16.958;2022-12-08T00:24:42;8.30;;;4.60;;
54599;SDS011;40500;51.084;16.958;2022-12-08T00:27:11;10.40;;;5.30;;
54599;SDS011;40500;51.084;16.958;2022-12-08T00:29:44;10.20;;;5.50;;
54599;SDS011;40500;51.084;16.958;2022-12-08T00:32:14;7.80;;;5.20;;
54599;SDS011;40500;51.084;16.958;2022-12-08T00:34:42;9.20;;;5.30;;
54599;SDS011;40500;51.084;16.958;2022-12-08T00:37:10;5.30;;;4.40;;
54599;SDS011;40500;51.084;16.958;2022-12-08T00:39:37;8.80;;;4.40;;
54599;SDS011;40500;51.084;16.958;2022-12-08T00:42:05;8.20;;;4.90;;
54599;SDS011;40500;51.084;16.958;2022-12-08T00:44:40;7.20;;;4.70;;
54599;SDS011;40500;51.084;16.958;2022-12-08T00:47:11;8.50;;;4.80;;
54599;SDS011;40500;51.084;16.958;2022-12-08T00:49:47;9.40;;;4.90;;
54599;SDS011;40500;51.084;16.958;2022-12-08T00:52:17;8.50;;;4.80;;
54599;SDS011;40500;51.084;16.958;2022-12-08T00:54:47;8.20;;;4.40;;
54599;SDS011;40500;51.084;16.958;2022-12-08T00:57:16;6.30;;;4.30;;
54599;SDS011;40500;51.084;16.958;2022-12-08T00:59:45;7.20;;;5.00;;
54599;SDS011;40500;51.084;16.958;2022-12-08T01:02:13;8.70;;;4.80;;
54599;SDS011;40500;51.084;16.958;2022-12-08T01:04:42;9.00;;;5.10;;
54599;SDS011;40500;51.084;16.958;2022-12-08T01:07:11;8.50;;;4.40;;
54599;SDS011;40500;51.084;16.958;2022-12-08T01:09:40;6.50;;;4.20;;
54599;SDS011;40500;51.084;16.958;2022-12-08T01:12:09;5.90;;;3.70;;
54599;SDS011;40500;51.084;16.958;2022-12-08T01:14:37;7.30;;;4.70;;
54599;SDS011;40500;51.084;16.958;2022-12-08T01:17:07;5.70;;;4.10;;
54599;SDS011;40500;51.084;16.958;2022-12-08T01:19:36;7.80;;;4.00;;
54599;SDS011;40500;51.084;16.958;2022-12-08T01:22:05;6.70;;;3.80;;
54599;SDS011;40500;51.084;16.958;2022-12-08T01:24:34;6.80;;;4.00;;
54599;SDS011;40500;51.084;16.958;2022-12-08T01:27:02;5.90;;;3.50;;
54599;SDS011;40500;51.084;16.958;2022-12-08T01:29:31;7.80;;;4.50;;
54599;SDS011;40500;51.084;16.958;2022-12-08T01:31:59;6.70;;;4.60;;
54599;SDS011;40500;51.084;16.958;2022-12-08T01:34:28;7.10;;;4.40;;
54599;SDS011;40500;51.084;16.958;2022-12-08T01:36:57;7.70;;;4.40;;
54599;SDS011;40500;51.084;16.958;2022-12-08T01:39:28;6.60;;;4.60;;
54599;SDS011;40500;51.084;16.958;2022-12-08T01:42:00;7.20;;;4.20;;
54599;SDS011;40500;51.084;16.958;2022-12-08T01:47:22;8.90;;;4.60;;
54599;SDS011;40500;51.084;16.958;2022-12-08T01:49:54;6.10;;;4.50;;
54599;SDS011;40500;51.084;16.958;2022-12-08T01:52:24;8.10;;;4.40;;
54599;SDS011;40500;51.084;16.958;2022-12-08T01:54:58;12.10;;;6.30;;
54599;SDS011;40500;51.084;16.958;2022-12-08T01:57:38;8.40;;;5.40;;
54599;SDS011;40500;51.084;16.958;2022-12-08T02:00:11;8.80;;;5.70;;
54599;SDS011;40500;51.084;16.958;2022-12-08T02:02:51;8.20;;;5.60;;
54599;SDS011;40500;51.084;16.958;2022-12-08T02:05:25;7.70;;;6.20;;
54599;SDS011;40500;51.084;16.958;2022-12-08T02:07:54;10.00;;;5.80;;
54599;SDS011;40500;51.084;16.958;2022-12-08T02:10:27;10.70;;;6.60;;
54599;SDS011;40500;51.084;16.958;2022-12-08T02:12:59;11.60;;;6.30;;
54599;SDS011;40500;51.084;16.958;2022-12-08T02:15:31;12.40;;;7.10;;
54599;SDS011;40500;51.084;16.958;2022-12-08T02:18:10;9.80;;;6.30;;
54599;SDS011;40500;51.084;16.958;2022-12-08T02:20:51;11.00;;;6.80;;
54599;SDS011;40500;51.084;16.958;2022-12-08T02:23:28;10.10;;;6.50;;
54599;SDS011;40500;51.084;16.958;2022-12-08T02:29:54;8.90;;;5.30;;
54599;SDS011;40500;51.084;16.958;2022-12-08T02:35:49;8.60;;;4.70;;
54599;SDS011;40500;51.084;16.958;2022-12-08T02:38:30;9.30;;;4.70;;
54599;SDS011;40500;51.084;16.958;2022-12-08T02:41:13;7.90;;;5.10;;
54599;SDS011;40500;51.084;16.958;2022-12-08T02:43:52;8.10;;;5.40;;
54599;SDS011;40500;51.084;16.958;2022-12-08T02:46:27;6.50;;;4.90;;
54599;SDS011;40500;51.084;16.958;2022-12-08T02:48:59;7.10;;;5.20;;
54599;SDS011;40500;51.084;16.958;2022-12-08T02:51:30;10.40;;;5.60;;
54599;SDS011;40500;51.084;16.958;2022-12-08T02:53:58;7.90;;;5.20;;
54599;SDS011;40500;51.084;16.958;2022-12-08T02:56:36;8.80;;;6.00;;
54599;SDS011;40500;51.084;16.958;2022-12-08T02:59:23;8.30;;;5.30;;
54599;SDS011;40500;51.084;16.958;2022-12-08T03:02:05;8.70;;;5.20;;
54599;SDS011;40500;51.084;16.958;2022-12-08T03:04:51;12.40;;;7.00;;
54599;SDS011;40500;51.084;16.958;2022-12-08T03:07:26;11.00;;;6.20;;
54599;SDS011;40500;51.084;16.958;2022-12-08T03:10:04;11.70;;;6.90;;
54599;SDS011;40500;51.084;16.958;2022-12-08T03:12:38;10.10;;;6.20;;
54599;SDS011;40500;51.084;16.958;2022-12-08T03:15:15;7.70;;;5.40;;
54599;SDS011;40500;51.084;16.958;2022-12-08T03:17:48;7.40;;;5.20;;
54599;SDS011;40500;51.084;16.958;2022-12-08T03:20:20;6.90;;;4.80;;
54599;SDS011;40500;51.084;16.958;2022-12-08T03:22:51;6.90;;;4.90;;
54599;SDS011;40500;51.084;16.958;2022-12-08T03:25:23;6.00;;;4.80;;
54599;SDS011;40500;51.084;16.958;2022-12-08T03:27:57;9.70;;;5.60;;
54599;SDS011;40500;51.084;16.958;2022-12-08T03:30:29;10.20;;;5.90;;
54599;SDS011;40500;51.084;16.958;2022-12-08T03:35:34;9.90;;;5.30;;
54599;SDS011;40500;51.084;16.958;2022-12-08T03:38:07;8.30;;;5.70;;
54599;SDS011;40500;51.084;16.958;2022-12-08T03:40:39;8.90;;;5.60;;
54599;SDS011;40500;51.084;16.958;2022-12-08T03:43:07;9.50;;;5.50;;
54599;SDS011;40500;51.084;16.958;2022-12-08T03:45:36;6.80;;;5.10;;
54599;SDS011;40500;51.084;16.958;2022-12-08T03:48:05;9.80;;;6.00;;
54599;SDS011;40500;51.084;16.958;2022-12-08T03:50:34;8.10;;;5.60;;
54599;SDS011;40500;51.084;16.958;2022-12-08T03:53:01;7.80;;;5.70;;
54599;SDS011;40500;51.084;16.958;2022-12-08T03:55:29;7.80;;;5.90;;
54599;SDS011;40500;51.084;16.958;2022-12-08T03:57:57;10.50;;;6.40;;
54599;SDS011;40500;51.084;16.958;2022-12-08T04:00:26;11.20;;;6.20;;
54599;SDS011;40500;51.084;16.958;2022-12-08T04:02:54;11.50;;;6.80;;
54599;SDS011;40500;51.084;16.958;2022-12-08T04:05:23;10.00;;;6.70;;
54599;SDS011;40500;51.084;16.958;2022-12-08T04:07:51;8.60;;;6.50;;
54599;SDS011;40500;51.084;16.958;2022-12-08T04:10:23;9.00;;;6.30;;
54599;SDS011;40500;51.084;16.958;2022-12-08T04:12:51;8.30;;;5.70;;
54599;SDS011;40500;51.084;16.958;2022-12-08T04:15:20;11.20;;;6.00;;
54599;SDS011;40500;51.084;16.958;2022-12-08T04:17:49;10.30;;;6.10;;
54599;SDS011;40500;51.084;16.958;2022-12-08T04:20:24;9.30;;;5.80;;
54599;SDS011;40500;51.084;16.958;2022-12-08T04:22:54;9.30;;;6.80;;
54599;SDS011;40500;51.084;16.958;2022-12-08T04:25:21;11.20;;;6.20;;
54599;SDS011;40500;51.084;16.958;2022-12-08T04:27:52;9.60;;;6.00;;
54599;SDS011;40500;51.084;16.958;2022-12-08T04:30:22;9.60;;;6.40;;
54599;SDS011;40500;51.084;16.958;2022-12-08T04:32:50;9.90;;;5.80;;
54599;SDS011;40500;51.084;16.958;2022-12-08T04:35:18;12.30;;;6.50;;
54599;SDS011;40500;51.084;16.958;2022-12-08T04:37:47;10.10;;;6.30;;
54599;SDS011;40500;51.084;16.958;2022-12-08T04:57:58;9.00;;;5.60;;
54599;SDS011;40500;51.084;16.958;2022-12-08T05:00:29;9.40;;;6.10;;
54599;SDS011;40500;51.084;16.958;2022-12-08T05:03:00;9.90;;;6.30;;
54599;SDS011;40500;51.084;16.958;2022-12-08T05:05:33;9.20;;;6.40;;
54599;SDS011;40500;51.084;16.958;2022-12-08T05:08:04;9.70;;;7.10;;
54599;SDS011;40500;51.084;16.958;2022-12-08T05:10:35;10.90;;;7.00;;
54599;SDS011;40500;51.084;16.958;2022-12-08T05:13:06;13.00;;;8.70;;
54599;SDS011;40500;51.084;16.958;2022-12-08T05:15:37;9.60;;;7.20;;
54599;SDS011;40500;51.084;16.958;2022-12-08T05:18:07;10.80;;;6.80;;
54599;SDS011;40500;51.084;16.958;2022-12-08T05:20:38;9.60;;;7.00;;
54599;SDS011;40500;51.084;16.958;2022-12-08T05:23:09;13.80;;;8.10;;
54599;SDS011;40500;51.084;16.958;2022-12-08T05:25:44;14.40;;;7.90;;
54599;SDS011;40500;51.084;16.958;2022-12-08T05:28:17;11.80;;;8.10;;
54599;SDS011;40500;51.084;16.958;2022-12-08T05:31:08;13.00;;;8.60;;
54599;SDS011;40500;51.084;16.958;2022-12-08T05:33:39;10.30;;;7.40;;
54599;SDS011;40500;51.084;16.958;2022-12-08T05:36:12;12.80;;;7.40;;
54599;SDS011;40500;51.084;16.958;2022-12-08T05:38:44;10.40;;;7.20;;
54599;SDS011;40500;51.084;16.958;2022-12-08T05:41:16;10.80;;;6.70;;
54599;SDS011;40500;51.084;16.958;2022-12-08T05:43:49;11.20;;;7.00;;
54599;SDS011;40500;51.084;16.958;2022-12-08T05:46:19;13.50;;;7.50;;
54599;SDS011;40500;51.084;16.958;2022-12-08T05:48:54;10.10;;;7.30;;
54599;SDS011;40500;51.084;16.958;2022-12-08T05:51:28;13.00;;;7.40;;
54599;SDS011;40500;51.084;16.958;2022-12-08T05:53:59;11.90;;;8.20;;
54599;SDS011;40500;51.084;16.958;2022-12-08T05:56:31;12.50;;;7.50;;
54599;SDS011;40500;51.084;16.958;2022-12-08T05:59:03;13.30;;;7.90;;
54599;SDS011;40500;51.084;16.958;2022-12-08T06:01:35;16.50;;;8.80;;
54599;SDS011;40500;51.084;16.958;2022-12-08T06:04:13;14.20;;;7.70;;
54599;SDS011;40500;51.084;16.958;2022-12-08T06:06:47;13.50;;;9.30;;
54599;SDS011;40500;51.084;16.958;2022-12-08T06:09:18;13.80;;;9.30;;
54599;SDS011;40500;51.084;16.958;2022-12-08T06:11:49;14.00;;;9.30;;
54599;SDS011;40500;51.084;16.958;2022-12-08T06:14:22;12.50;;;8.30;;
54599;SDS011;40500;51.084;16.958;2022-12-08T06:16:53;12.60;;;7.80;;
54599;SDS011;40500;51.084;16.958;2022-12-08T06:19:26;16.20;;;8.60;;
54599;SDS011;40500;51.084;16.958;2022-12-08T06:21:57;14.20;;;8.10;;
54599;SDS011;40500;51.084;16.958;2022-12-08T06:24:29;12.90;;;8.40;;
54599;SDS011;40500;51.084;16.958;2022-12-08T06:26:59;13.20;;;8.10;;
54599;SDS011;40500;51.084;16.958;2022-12-08T06:29:30;15.40;;;8.70;;
54599;SDS011;40500;51.084;16.958;2022-12-08T06:32:00;13.30;;;9.10;;
54599;SDS011;40500;51.084;16.958;2022-12-08T06:34:31;12.30;;;8.50;;
54599;SDS011;40500;51.084;16.958;2022-12-08T06:37:02;14.10;;;8.60;;
54599;SDS011;40500;51.084;16.958;2022-12-08T06:39:32;11.60;;;7.90;;
54599;SDS011;40500;51.084;16.958;2022-12-08T06:42:02;12.70;;;8.20;;
54599;SDS011;40500;51.084;16.958;2022-12-08T06:44:50;10.50;;;7.90;;
54599;SDS011;40500;51.084;16.958;2022-12-08T06:47:21;12.60;;;7.80;;
54599;SDS011;40500;51.084;16.958;2022-12-08T06:49:53;10.50;;;7.40;;
54599;SDS011;40500;51.084;16.958;2022-12-08T06:52:23;13.90;;;8.20;;
54599;SDS011;40500;51.084;16.958;2022-12-08T06:54:53;11.60;;;7.70;;
54599;SDS011;40500;51.084;16.958;2022-12-08T06:57:26;12.10;;;8.70;;
54599;SDS011;40500;51.084;16.958;2022-12-08T06:59:57;12.00;;;8.40;;
54599;SDS011;40500;51.084;16.958;2022-12-08T07:02:28;15.10;;;8.70;;
54599;SDS011;40500;51.084;16.958;2022-12-08T07:04:58;12.30;;;7.70;;
54599;SDS011;40500;51.084;16.958;2022-12-08T07:07:28;14.20;;;10.00;;
54599;SDS011;40500;51.084;16.958;2022-12-08T07:10:06;13.30;;;7.80;;
54599;SDS011;40500;51.084;16.958;2022-12-08T07:12:39;10.80;;;7.10;;
54599;SDS011;40500;51.084;16.958;2022-12-08T07:15:10;9.90;;;7.00;;
54599;SDS011;40500;51.084;16.958;2022-12-08T07:17:41;12.10;;;7.90;;
54599;SDS011;40500;51.084;16.958;2022-12-08T07:20:11;12.00;;;7.40;;
54599;SDS011;40500;51.084;16.958;2022-12-08T07:22:46;13.00;;;7.20;;
54599;SDS011;40500;51.084;16.958;2022-12-08T07:25:17;11.00;;;7.90;;
54599;SDS011;40500;51.084;16.958;2022-12-08T07:27:49;11.60;;;7.60;;
54599;SDS011;40500;51.084;16.958;2022-12-08T07:30:22;11.90;;;8.00;;
54599;SDS011;40500;51.084;16.958;2022-12-08T07:32:54;10.50;;;7.30;;
54599;SDS011;40500;51.084;16.958;2022-12-08T07:35:24;11.50;;;7.40;;
54599;SDS011;40500;51.084;16.958;2022-12-08T07:37:55;8.10;;;6.10;;
54599;SDS011;40500;51.084;16.958;2022-12-08T07:40:25;11.50;;;7.60;;
54599;SDS011;40500;51.084;16.958;2022-12-08T07:42:56;14.10;;;7.50;;
54599;SDS011;40500;51.084;16.958;2022-12-08T07:45:26;12.60;;;8.40;;
54599;SDS011;40500;51.084;16.958;2022-12-08T07:47:58;12.80;;;7.30;;
54599;SDS011;40500;51.084;16.958;2022-12-08T07:50:29;12.50;;;7.30;;
54599;SDS011;40500;51.084;16.958;2022-12-08T07:53:00;10.80;;;7.40;;
54599;SDS011;40500;51.084;16.958;2022-12-08T07:55:30;13.20;;;8.70;;
54599;SDS011;40500;51.084;16.958;2022-12-08T07:58:01;9.60;;;7.20;;
54599;SDS011;40500;51.084;16.958;2022-12-08T08:00:31;11.70;;;7.70;;
54599;SDS011;40500;51.084;16.958;2022-12-08T08:03:03;13.00;;;8.70;;
54599;SDS011;40500;51.084;16.958;2022-12-08T08:05:35;11.90;;;7.90;;
54599;SDS011;40500;51.084;16.958;2022-12-08T08:08:06;12.80;;;8.70;;
54599;SDS011;40500;51.084;16.958;2022-12-08T08:10:37;14.90;;;8.90;;
54599;SDS011;40500;51.084;16.958;2022-12-08T08:13:07;11.50;;;8.40;;
54599;SDS011;40500;51.084;16.958;2022-12-08T08:15:37;13.50;;;8.00;;
54599;SDS011;40500;51.084;16.958;2022-12-08T08:18:08;8.70;;;6.10;;
54599;SDS011;40500;51.084;16.958;2022-12-08T08:20:38;12.60;;;7.50;;
54599;SDS011;40500;51.084;16.958;2022-12-08T08:23:09;10.60;;;7.40;;
54599;SDS011;40500;51.084;16.958;2022-12-08T08:25:39;11.10;;;7.60;;
54599;SDS011;40500;51.084;16.958;2022-12-08T08:28:10;10.90;;;7.00;;
54599;SDS011;40500;51.084;16.958;2022-12-08T08:30:40;10.40;;;6.80;;
54599;SDS011;40500;51.084;16.958;2022-12-08T08:33:10;12.90;;;7.60;;
54599;SDS011;40500;51.084;16.958;2022-12-08T08:35:41;11.70;;;7.30;;
54599;SDS011;40500;51.084;16.958;2022-12-08T08:38:12;12.30;;;6.60;;
54599;SDS011;40500;51.084;16.958;2022-12-08T08:40:42;16.10;;;6.90;;
54599;SDS011;40500;51.084;16.958;2022-12-08T08:43:13;10.30;;;6.50;;
54599;SDS011;40500;51.084;16.958;2022-12-08T08:46:06;11.70;;;6.80;;
54599;SDS011;40500;51.084;16.958;2022-12-08T08:48:37;11.10;;;6.20;;
54599;SDS011;40500;51.084;16.958;2022-12-08T08:51:10;13.20;;;6.90;;
54599;SDS011;40500;51.084;16.958;2022-12-08T08:53:42;10.10;;;5.20;;
54599;SDS011;40500;51.084;16.958;2022-12-08T08:56:13;8.00;;;6.30;;
54599;SDS011;40500;51.084;16.958;2022-12-08T08:58:47;10.50;;;6.80;;
54599;SDS011;40500;51.084;16.958;2022-12-08T09:01:19;8.20;;;6.20;;
54599;SDS011;40500;51.084;16.958;2022-12-08T09:03:52;8.00;;;5.60;;
54599;SDS011;40500;51.084;16.958;2022-12-08T09:06:25;11.50;;;6.20;;
54599;SDS011;40500;51.084;16.958;2022-12-08T09:08:58;13.80;;;5.90;;
54599;SDS011;40500;51.084;16.958;2022-12-08T09:11:35;7.00;;;5.80;;
54599;SDS011;40500;51.084;16.958;2022-12-08T09:14:05;9.90;;;5.80;;
54599;SDS011;40500;51.084;16.958;2022-12-08T09:16:38;9.30;;;5.50;;
54599;SDS011;40500;51.084;16.958;2022-12-08T09:19:09;8.80;;;5.80;;
54599;SDS011;40500;51.084;16.958;2022-12-08T09:21:41;10.60;;;5.20;;
54599;SDS011;40500;51.084;16.958;2022-12-08T09:24:13;8.30;;;5.50;;
54599;SDS011;40500;51.084;16.958;2022-12-08T09:26:44;15.10;;;6.10;;
54599;SDS011;40500;51.084;16.958;2022-12-08T09:29:14;8.00;;;5.50;;
54599;SDS011;40500;51.084;16.958;2022-12-08T09:31:47;6.60;;;4.70;;
54599;SDS011;40500;51.084;16.958;2022-12-08T09:34:18;9.70;;;5.90;;
54599;SDS011;40500;51.084;16.958;2022-12-08T09:36:48;7.40;;;5.00;;
54599;SDS011;40500;51.084;16.958;2022-12-08T09:39:19;6.60;;;4.70;;
54599;SDS011;40500;51.084;16.958;2022-12-08T09:41:49;7.80;;;5.40;;
54599;SDS011;40500;51.084;16.958;2022-12-08T09:44:41;7.80;;;5.50;;
54599;SDS011;40500;51.084;16.958;2022-12-08T09:47:22;8.10;;;5.70;;
54599;SDS011;40500;51.084;16.958;2022-12-08T09:50:03;5.80;;;3.90;;
54599;SDS011;40500;51.084;16.958;2022-12-08T09:52:42;8.10;;;4.90;;
54599;SDS011;40500;51.084;16.958;2022-12-08T09:55:18;5.70;;;4.80;;
54599;SDS011;40500;51.084;16.958;2022-12-08T09:57:56;7.90;;;6.00;;
54599;SDS011;40500;51.084;16.958;2022-12-08T10:00:30;7.60;;;5.50;;
54599;SDS011;40500;51.084;16.958;2022-12-08T10:03:01;8.90;;;4.50;;
54599;SDS011;40500;51.084;16.958;2022-12-08T10:05:32;9.00;;;5.50;;
54599;SDS011;40500;51.084;16.958;2022-12-08T10:08:11;9.80;;;5.50;;
54599;SDS011;40500;51.084;16.958;2022-12-08T10:10:50;8.40;;;5.90;;
54599;SDS011;40500;51.084;16.958;2022-12-08T10:16:00;7.40;;;5.80;;
54599;SDS011;40500;51.084;16.958;2022-12-08T10:18:54;8.00;;;5.60;;
54599;SDS011;40500;51.084;16.958;2022-12-08T10:21:29;8.20;;;5.70;;
54599;SDS011;40500;51.084;16.958;2022-12-08T10:24:02;7.60;;;4.60;;
54599;SDS011;40500;51.084;16.958;2022-12-08T10:26:39;6.30;;;5.00;;
54599;SDS011;40500;51.084;16.958;2022-12-08T10:29:12;7.60;;;5.80;;
54599;SDS011;40500;51.084;16.958;2022-12-08T10:31:42;6.90;;;5.20;;
54599;SDS011;40500;51.084;16.958;2022-12-08T10:34:16;8.50;;;6.20;;
54599;SDS011;40500;51.084;16.958;2022-12-08T10:36:50;8.00;;;6.10;;
54599;SDS011;40500;51.084;16.958;2022-12-08T10:39:31;6.20;;;5.00;;
54599;SDS011;40500;51.084;16.958;2022-12-08T10:42:08;7.10;;;5.70;;
54599;SDS011;40500;51.084;16.958;2022-12-08T10:44:53;7.00;;;4.90;;
54599;SDS011;40500;51.084;16.958;2022-12-08T10:47:38;13.40;;;5.90;;
54599;SDS011;40500;51.084;16.958;2022-12-08T10:50:17;9.90;;;6.20;;
54599;SDS011;40500;51.084;16.958;2022-12-08T10:52:54;8.70;;;5.60;;
54599;SDS011;40500;51.084;16.958;2022-12-08T10:55:26;6.50;;;5.10;;
54599;SDS011;40500;51.084;16.958;2022-12-08T10:58:17;8.10;;;5.50;;
54599;SDS011;40500;51.084;16.958;2022-12-08T11:00:55;8.30;;;5.40;;
54599;SDS011;40500;51.084;16.958;2022-12-08T11:03:30;7.60;;;5.20;;
54599;SDS011;40500;51.084;16.958;2022-12-08T11:06:11;12.40;;;5.40;;
54599;SDS011;40500;51.084;16.958;2022-12-08T11:08:47;9.70;;;6.00;;
54599;SDS011;40500;51.084;16.958;2022-12-08T11:11:21;8.10;;;5.40;;
54599;SDS011;40500;51.084;16.958;2022-12-08T11:14:06;11.30;;;6.30;;
54599;SDS011;40500;51.084;16.958;2022-12-08T11:16:43;9.70;;;6.80;;
54599;SDS011;40500;51.084;16.958;2022-12-08T11:19:15;10.70;;;6.30;;
54599;SDS011;40500;51.084;16.958;2022-12-08T11:21:46;9.70;;;6.40;;
54599;SDS011;40500;51.084;16.958;2022-12-08T11:24:22;8.90;;;6.20;;
54599;SDS011;40500;51.084;16.958;2022-12-08T11:27:02;8.10;;;5.50;;
54599;SDS011;40500;51.084;16.958;2022-12-08T11:29:34;8.80;;;6.30;;
54599;SDS011;40500;51.084;16.958;2022-12-08T11:32:05;7.90;;;6.10;;
54599;SDS011;40500;51.084;16.958;2022-12-08T11:34:40;10.00;;;6.50;;
54599;SDS011;40500;51.084;16.958;2022-12-08T11:37:14;7.40;;;5.50;;
54599;SDS011;40500;51.084;16.958;2022-12-08T11:39:49;7.50;;;5.60;;
54599;SDS011;40500;51.084;16.958;2022-12-08T11:42:23;7.60;;;5.70;;
54599;SDS011;40500;51.084;16.958;2022-12-08T11:45:00;9.60;;;6.00;;
54599;SDS011;40500;51.084;16.958;2022-12-08T11:47:36;7.20;;;5.30;;
54599;SDS011;40500;51.084;16.958;2022-12-08T11:50:15;10.30;;;5.40;;
54599;SDS011;40500;51.084;16.958;2022-12-08T11:52:49;6.10;;;4.50;;
54599;SDS011;40500;51.084;16.958;2022-12-08T11:55:28;9.00;;;6.40;;
54599;SDS011;40500;51.084;16.958;2022-12-08T11:58:10;9.20;;;6.00;;
54599;SDS011;40500;51.084;16.958;2022-12-08T12:00:46;8.00;;;5.50;;
54599;SDS011;40500;51.084;16.958;2022-12-08T12:03:19;8.70;;;5.60;;
54599;SDS011;40500;51.084;16.958;2022-12-08T12:06:01;7.90;;;5.40;;
54599;SDS011;40500;51.084;16.958;2022-12-08T12:09:06;8.90;;;5.70;;
54599;SDS011;40500;51.084;16.958;2022-12-08T12:14:41;8.10;;;5.80;;
54599;SDS011;40500;51.084;16.958;2022-12-08T12:17:40;12.10;;;5.50;;
54599;SDS011;40500;51.084;16.958;2022-12-08T12:20:17;7.20;;;4.90;;
54599;SDS011;40500;51.084;16.958;2022-12-08T12:22:54;7.80;;;5.90;;
54599;SDS011;40500;51.084;16.958;2022-12-08T12:25:31;9.10;;;5.50;;
54599;SDS011;40500;51.084;16.958;2022-12-08T12:28:04;6.70;;;5.50;;
54599;SDS011;40500;51.084;16.958;2022-12-08T12:30:49;8.00;;;5.20;;
54599;SDS011;40500;51.084;16.958;2022-12-08T12:33:26;8.40;;;5.70;;
54599;SDS011;40500;51.084;16.958;2022-12-08T12:36:01;10.60;;;6.20;;
54599;SDS011;40500;51.084;16.958;2022-12-08T12:38:34;9.00;;;6.30;;
54599;SDS011;40500;51.084;16.958;2022-12-08T12:41:26;8.10;;;5.70;;
54599;SDS011;40500;51.084;16.958;2022-12-08T12:44:07;10.10;;;5.80;;
54599;SDS011;40500;51.084;16.958;2022-12-08T12:46:57;8.60;;;5.60;;
54599;SDS011;40500;51.084;16.958;2022-12-08T12:49:49;11.50;;;5.70;;
54599;SDS011;40500;51.084;16.958;2022-12-08T12:55:23;9.50;;;4.90;;
54599;SDS011;40500;51.084;16.958;2022-12-08T13:04:28;8.60;;;5.80;;
54599;SDS011;40500;51.084;16.958;2022-12-08T13:07:01;7.40;;;5.70;;
54599;SDS011;40500;51.084;16.958;2022-12-08T13:09:34;6.20;;;5.00;;
54599;SDS011;40500;51.084;16.958;2022-12-08T13:12:09;6.50;;;5.30;;
54599;SDS011;40500;51.084;16.958;2022-12-08T13:14:50;7.50;;;5.50;;
54599;SDS011;40500;51.084;16.958;2022-12-08T13:17:26;7.90;;;5.30;;
54599;SDS011;40500;51.084;16.958;2022-12-08T13:19:59;7.80;;;5.50;;
54599;SDS011;40500;51.084;16.958;2022-12-08T13:25:46;6.80;;;5.00;;
54599;SDS011;40500;51.084;16.958;2022-12-08T13:28:28;7.60;;;5.00;;
54599;SDS011;40500;51.084;16.958;2022-12-08T13:30:59;6.10;;;4.60;;
54599;SDS011;40500;51.084;16.958;2022-12-08T13:33:31;6.80;;;5.20;;
54599;SDS011;40500;51.084;16.958;2022-12-08T13:36:13;8.60;;;6.30;;
54599;SDS011;40500;51.084;16.958;2022-12-08T13:38:51;7.80;;;5.20;;
54599;SDS011;40500;51.084;16.958;2022-12-08T13:41:25;8.60;;;5.90;;
54599;SDS011;40500;51.084;16.958;2022-12-08T13:44:01;7.30;;;5.00;;
54599;SDS011;40500;51.084;16.958;2022-12-08T13:46:58;10.10;;;5.80;;
54599;SDS011;40500;51.084;16.958;2022-12-08T13:49:52;8.80;;;5.30;;
54599;SDS011;40500;51.084;16.958;2022-12-08T13:52:49;8.20;;;6.20;;
54599;SDS011;40500;51.084;16.958;2022-12-08T13:55:43;6.30;;;5.00;;
54599;SDS011;40500;51.084;16.958;2022-12-08T13:58:36;7.50;;;5.60;;
54599;SDS011;40500;51.084;16.958;2022-12-08T14:01:10;7.40;;;5.40;;
54599;SDS011;40500;51.084;16.958;2022-12-08T14:03:49;9.00;;;6.00;;
54599;SDS011;40500;51.084;16.958;2022-12-08T14:06:43;7.40;;;5.60;;
54599;SDS011;40500;51.084;16.958;2022-12-08T14:09:17;10.30;;;6.50;;
54599;SDS011;40500;51.084;16.958;2022-12-08T14:11:51;10.70;;;6.80;;
54599;SDS011;40500;51.084;16.958;2022-12-08T14:14:27;8.20;;;6.10;;
54599;SDS011;40500;51.084;16.958;2022-12-08T14:17:21;10.20;;;6.80;;
54599;SDS011;40500;51.084;16.958;2022-12-08T14:19:53;13.80;;;7.90;;
54599;SDS011;40500;51.084;16.958;2022-12-08T14:22:30;12.40;;;5.70;;
54599;SDS011;40500;51.084;16.958;2022-12-08T14:25:02;17.10;;;7.90;;
54599;SDS011;40500;51.084;16.958;2022-12-08T14:27:36;14.00;;;7.20;;
54599;SDS011;40500;51.084;16.958;2022-12-08T14:30:12;12.90;;;6.70;;
54599;SDS011;40500;51.084;16.958;2022-12-08T14:32:48;12.20;;;6.10;;
54599;SDS011;40500;51.084;16.958;2022-12-08T14:35:23;9.10;;;6.00;;
54599;SDS011;40500;51.084;16.958;2022-12-08T14:37:56;9.70;;;6.50;;
54599;SDS011;40500;51.084;16.958;2022-12-08T14:40:32;9.70;;;5.90;;
54599;SDS011;40500;51.084;16.958;2022-12-08T14:43:10;7.80;;;6.20;;
54599;SDS011;40500;51.084;16.958;2022-12-08T14:45:47;9.90;;;6.80;;
54599;SDS011;40500;51.084;16.958;2022-12-08T14:48:20;7.60;;;5.80;;
54599;SDS011;40500;51.084;16.958;2022-12-08T14:50:57;9.80;;;6.40;;
54599;SDS011;40500;51.084;16.958;2022-12-08T14:53:38;8.20;;;6.00;;
54599;SDS011;40500;51.084;16.958;2022-12-08T14:56:13;10.20;;;6.70;;
54599;SDS011;40500;51.084;16.958;2022-12-08T14:58:49;13.30;;;6.60;;
54599;SDS011;40500;51.084;16.958;2022-12-08T15:01:30;11.70;;;6.80;;
54599;SDS011;40500;51.084;16.958;2022-12-08T15:04:05;10.10;;;6.60;;
54599;SDS011;40500;51.084;16.958;2022-12-08T15:06:45;9.00;;;6.40;;
54599;SDS011;40500;51.084;16.958;2022-12-08T15:09:28;10.00;;;7.00;;
54599;SDS011;40500;51.084;16.958;2022-12-08T15:12:03;10.50;;;6.80;;
54599;SDS011;40500;51.084;16.958;2022-12-08T15:14:56;8.90;;;6.00;;
54599;SDS011;40500;51.084;16.958;2022-12-08T15:17:30;9.60;;;7.10;;
54599;SDS011;40500;51.084;16.958;2022-12-08T15:20:04;10.70;;;7.80;;
54599;SDS011;40500;51.084;16.958;2022-12-08T15:23:01;10.40;;;7.10;;
54599;SDS011;40500;51.084;16.958;2022-12-08T15:25:33;12.50;;;7.40;;
54599;SDS011;40500;51.084;16.958;2022-12-08T15:28:05;11.50;;;7.40;;
54599;SDS011;40500;51.084;16.958;2022-12-08T15:30:36;14.50;;;8.40;;
54599;SDS011;40500;51.084;16.958;2022-12-08T15:33:07;11.20;;;7.20;;
54599;SDS011;40500;51.084;16.958;2022-12-08T15:35:37;13.10;;;7.40;;
54599;SDS011;40500;51.084;16.958;2022-12-08T15:38:11;10.00;;;6.60;;
54599;SDS011;40500;51.084;16.958;2022-12-08T15:40:48;10.60;;;6.80;;
54599;SDS011;40500;51.084;16.958;2022-12-08T15:43:19;11.60;;;7.30;;
54599;SDS011;40500;51.084;16.958;2022-12-08T15:45:50;10.50;;;6.90;;
54599;SDS011;40500;51.084;16.958;2022-12-08T15:48:27;9.80;;;6.40;;
54599;SDS011;40500;51.084;16.958;2022-12-08T15:50:58;9.10;;;5.80;;
54599;SDS011;40500;51.084;16.958;2022-12-08T15:53:30;9.20;;;6.50;;
54599;SDS011;40500;51.084;16.958;2022-12-08T15:56:02;9.70;;;7.00;;
54599;SDS011;40500;51.084;16.958;2022-12-08T15:58:55;14.20;;;7.90;;